sensor_id;sensor_type;location;lat;lon;timestamp;pressure;altitude;pressure_sealevel;temperature;humidity
42289;BME280;30230;47.520;19.016;2023-07-31T00:00:23;98749.41;;;19.27;100.00
42289;BME280;30230;47.520;19.016;2023-07-31T00:02:23;98739.53;;;19.26;100.00
42289;BME280;30230;47.520;19.016;2023-07-31T00:04:24;98748.84;;;19.20;100.00
42289;BME280;30230;47.520;19.016;2023-07-31T00:06:24;98744.47;;;19.19;100.00
42289;BME280;30230;47.520;19.016;2023-07-31T00:08:25;98746.94;;;19.21;100.00
42289;BME280;30230;47.520;19.016;2023-07-31T00:10:25;98746.94;;;19.26;100.00
42289;BME280;30230;47.520;19.016;2023-07-31T00:12:25;98755.16;;;19.26;100.00
42289;BME280;30230;47.520;19.016;2023-07-31T00:14:26;98747.22;;;19.24;100.00
42289;BME280;30230;47.520;19.016;2023-07-31T00:16:26;98748.56;;;19.17;100.00
42289;BME280;30230;47.520;19.016;2023-07-31T00:18:27;98748.84;;;19.20;100.00
42289;BME280;30230;47.520;19.016;2023-07-31T00:20:27;98746.94;;;19.26;100.00
42289;BME280;30230;47.520;19.016;2023-07-31T00:22:28;98751.88;;;19.29;100.00
42289;BME280;30230;47.520;19.016;2023-07-31T00:24:28;98738.19;;;19.29;100.00
42289;BME280;30230;47.520;19.016;2023-07-31T00:26:29;98745.31;;;19.25;100.00
42289;BME280;30230;47.520;19.016;2023-07-31T00:28:29;98752.69;;;19.30;100.00
42289;BME280;30230;47.520;19.016;2023-07-31T00:30:29;98756.25;;;19.25;100.00
42289;BME280;30230;47.520;19.016;2023-07-31T00:32:30;98747.50;;;19.23;100.00
42289;BME280;30230;47.520;19.016;2023-07-31T00:34:30;98751.59;;;19.31;100.00
42289;BME280;30230;47.520;19.016;2023-07-31T00:36:31;98757.38;;;19.34;100.00
42289;BME280;30230;47.520;19.016;2023-07-31T00:38:31;98754.34;;;19.36;100.00
42289;BME280;30230;47.520;19.016;2023-07-31T00:40:36;98753.81;;;19.29;100.00
42289;BME280;30230;47.520;19.016;2023-07-31T00:42:37;98754.63;;;19.29;100.00
42289;BME280;30230;47.520;19.016;2023-07-31T00:44:37;98762.84;;;19.29;100.00
42289;BME280;30230;47.520;19.016;2023-07-31T00:46:38;98751.31;;;19.37;100.00
42289;BME280;30230;47.520;19.016;2023-07-31T00:48:39;98766.41;;;19.30;100.00
42289;BME280;30230;47.520;19.016;2023-07-31T00:50:39;98760.09;;;19.29;100.00
42289;BME280;30230;47.520;19.016;2023-07-31T00:52:40;98761.44;;;19.26;100.00
42289;BME280;30230;47.520;19.016;2023-07-31T00:54:40;98755.97;;;19.26;100.00
42289;BME280;30230;47.520;19.016;2023-07-31T00:56:41;98763.09;;;19.27;100.00
42289;BME280;30230;47.520;19.016;2023-07-31T00:58:42;98764.75;;;19.23;100.00
42289;BME280;30230;47.520;19.016;2023-07-31T01:00:42;98760.34;;;19.17;100.00
42289;BME280;30230;47.520;19.016;2023-07-31T01:02:44;98766.91;;;19.21;100.00
42289;BME280;30230;47.520;19.016;2023-07-31T01:04:45;98759.81;;;19.15;100.00
42289;BME280;30230;47.520;19.016;2023-07-31T01:09:27;98758.16;;;19.14;100.00
42289;BME280;30230;47.520;19.016;2023-07-31T01:11:43;98751.59;;;19.15;100.00
42289;BME280;30230;47.520;19.016;2023-07-31T01:13:46;98754.03;;;19.02;100.00
42289;BME280;30230;47.520;19.016;2023-07-31T01:15:47;98757.56;;;19.02;100.00
42289;BME280;30230;47.520;19.016;2023-07-31T01:17:47;98762.25;;;19.12;100.00
42289;BME280;30230;47.520;19.016;2023-07-31T01:19:48;98762.50;;;19.00;100.00
42289;BME280;30230;47.520;19.016;2023-07-31T01:26:21;98775.09;;;19.01;100.00
42289;BME280;30230;47.520;19.016;2023-07-31T01:28:56;98773.44;;;18.95;100.00
42289;BME280;30230;47.520;19.016;2023-07-31T01:31:00;98777.56;;;18.87;100.00
42289;BME280;30230;47.520;19.016;2023-07-31T01:33:03;98778.91;;;18.90;100.00
42289;BME280;30230;47.520;19.016;2023-07-31T01:35:08;98783.56;;;18.89;100.00
42289;BME280;30230;47.520;19.016;2023-07-31T01:37:08;98781.09;;;18.83;100.00
42289;BME280;30230;47.520;19.016;2023-07-31T01:39:09;98780.00;;;18.84;100.00
42289;BME280;30230;47.520;19.016;2023-07-31T01:41:09;98776.72;;;18.82;100.00
42289;BME280;30230;47.520;19.016;2023-07-31T01:43:10;98771.78;;;18.79;100.00
42289;BME280;30230;47.520;19.016;2023-07-31T01:45:10;98774.25;;;18.85;100.00
42289;BME280;30230;47.520;19.016;2023-07-31T01:47:11;98763.53;;;18.73;100.00
42289;BME280;30230;47.520;19.016;2023-07-31T01:49:11;98772.56;;;18.74;100.00
42289;BME280;30230;47.520;19.016;2023-07-31T01:51:12;98757.28;;;18.78;100.00
42289;BME280;30230;47.520;19.016;2023-07-31T01:53:12;98762.16;;;18.71;100.00
42289;BME280;30230;47.520;19.016;2023-07-31T01:55:13;98761.03;;;18.67;100.00
42289;BME280;30230;47.520;19.016;2023-07-31T01:57:13;98756.09;;;18.64;100.00
42289;BME280;30230;47.520;19.016;2023-07-31T01:59:14;98756.16;;;18.69;100.00
42289;BME280;30230;47.520;19.016;2023-07-31T02:01:14;98751.16;;;18.56;100.00
42289;BME280;30230;47.520;19.016;2023-07-31T02:03:15;98752.00;;;18.61;100.00
42289;BME280;30230;47.520;19.016;2023-07-31T02:05:15;98755.78;;;18.55;100.00
42289;BME280;30230;47.520;19.016;2023-07-31T02:07:16;98749.50;;;18.55;100.00
42289;BME280;30230;47.520;19.016;2023-07-31T02:09:16;98752.81;;;18.62;100.00
42289;BME280;30230;47.520;19.016;2023-07-31T02:11:16;98762.63;;;18.53;100.00
42289;BME280;30230;47.520;19.016;2023-07-31T02:13:17;98756.84;;;18.49;100.00
42289;BME280;30230;47.520;19.016;2023-07-31T02:15:17;98765.38;;;18.53;100.00
42289;BME280;30230;47.520;19.016;2023-07-31T02:17:18;98758.25;;;18.52;100.00
42289;BME280;30230;47.520;19.016;2023-07-31T02:19:19;98774.66;;;18.52;100.00
42289;BME280;30230;47.520;19.016;2023-07-31T02:21:19;98751.91;;;18.41;100.00
42289;BME280;30230;47.520;19.016;2023-07-31T02:23:20;98766.41;;;18.41;100.00
42289;BME280;30230;47.520;19.016;2023-07-31T02:25:20;98767.22;;;18.42;100.00
42289;BME280;30230;47.520;19.016;2023-07-31T02:27:20;98782.81;;;18.41;100.00
42289;BME280;30230;47.520;19.016;2023-07-31T02:29:24;98783.66;;;18.47;100.00
42289;BME280;30230;47.520;19.016;2023-07-31T02:31:24;98781.16;;;18.35;100.00
42289;BME280;30230;47.520;19.016;2023-07-31T02:33:25;98783.00;;;18.30;100.00
42289;BME280;30230;47.520;19.016;2023-07-31T02:35:25;98780.06;;;18.36;100.00
42289;BME280;30230;47.520;19.016;2023-07-31T02:37:25;98777.81;;;18.28;100.00
42289;BME280;30230;47.520;19.016;2023-07-31T02:39:26;98785.53;;;18.36;100.00
42289;BME280;30230;47.520;19.016;2023-07-31T02:41:26;98778.91;;;18.27;100.00
42289;BME280;30230;47.520;19.016;2023-07-31T02:43:27;98777.81;;;18.28;100.00
42289;BME280;30230;47.520;19.016;2023-07-31T02:45:27;98779.75;;;18.33;100.00
42289;BME280;30230;47.520;19.016;2023-07-31T02:47:27;98793.41;;;18.28;100.00
42289;BME280;30230;47.520;19.016;2023-07-31T02:49:28;98787.13;;;18.27;100.00
42289;BME280;30230;47.520;19.016;2023-07-31T02:51:28;98795.53;;;18.15;100.00
42289;BME280;30230;47.520;19.016;2023-07-31T02:53:29;98798.31;;;18.20;100.00
42289;BME280;30230;47.520;19.016;2023-07-31T02:55:29;98799.56;;;18.08;100.00
42289;BME280;30230;47.520;19.016;2023-07-31T02:57:29;98796.84;;;18.08;100.00
42289;BME280;30230;47.520;19.016;2023-07-31T02:59:31;98800.13;;;18.05;100.00
42289;BME280;30230;47.520;19.016;2023-07-31T03:01:31;98803.63;;;18.00;100.00
42289;BME280;30230;47.520;19.016;2023-07-31T03:03:31;98798.69;;;17.97;100.00
42289;BME280;30230;47.520;19.016;2023-07-31T03:05:32;98803.91;;;18.04;100.00
42289;BME280;30230;47.520;19.016;2023-07-31T03:07:32;98798.25;;;18.10;100.00
42289;BME280;30230;47.520;19.016;2023-07-31T03:09:33;98808.34;;;18.10;100.00
42289;BME280;30230;47.520;19.016;2023-07-31T03:11:33;98815.13;;;18.02;100.00
42289;BME280;30230;47.520;19.016;2023-07-31T03:13:33;98807.72;;;17.98;100.00
42289;BME280;30230;47.520;19.016;2023-07-31T03:15:34;98815.88;;;17.92;100.00
42289;BME280;30230;47.520;19.016;2023-07-31T03:17:34;98818.59;;;17.92;100.00
42289;BME280;30230;47.520;19.016;2023-07-31T03:19:34;98820.25;;;17.93;100.00
42289;BME280;30230;47.520;19.016;2023-07-31T03:21:35;98813.41;;;17.91;100.00
42289;BME280;30230;47.520;19.016;2023-07-31T03:23:35;98816.41;;;17.89;100.00
42289;BME280;30230;47.520;19.016;2023-07-31T03:25:35;98817.28;;;17.95;100.00
42289;BME280;30230;47.520;19.016;2023-07-31T03:27:36;98821.38;;;17.98;100.00
42289;BME280;30230;47.520;19.016;2023-07-31T03:29:36;98833.03;;;17.88;100.00
42289;BME280;30230;47.520;19.016;2023-07-31T03:31:37;98830.00;;;17.79;100.00
42289;BME280;30230;47.520;19.016;2023-07-31T03:33:37;98821.53;;;17.81;100.00
42289;BME280;30230;47.520;19.016;2023-07-31T03:35:37;98819.63;;;17.81;100.00
42289;BME280;30230;47.520;19.016;2023-07-31T03:37:38;98819.66;;;17.86;100.00
42289;BME280;30230;47.520;19.016;2023-07-31T03:39:38;98810.97;;;17.94;100.00
42289;BME280;30230;47.520;19.016;2023-07-31T03:41:39;98817.03;;;18.02;100.00
42289;BME280;30230;47.520;19.016;2023-07-31T03:43:39;98817.03;;;18.02;100.00
42289;BME280;30230;47.520;19.016;2023-07-31T03:45:39;98815.00;;;17.87;100.00
42289;BME280;30230;47.520;19.016;2023-07-31T03:47:40;98824.00;;;17.82;100.00
42289;BME280;30230;47.520;19.016;2023-07-31T03:49:41;98830.28;;;17.83;100.00
42289;BME280;30230;47.520;19.016;2023-07-31T03:51:41;98826.56;;;17.94;100.00
42289;BME280;30230;47.520;19.016;2023-07-31T03:53:42;98827.94;;;17.96;100.00
42289;BME280;30230;47.520;19.016;2023-07-31T03:55:42;98810.91;;;17.84;100.00
42289;BME280;30230;47.520;19.016;2023-07-31T03:57:43;98820.22;;;17.88;100.00
42289;BME280;30230;47.520;19.016;2023-07-31T03:59:43;98819.16;;;17.89;100.00
42289;BME280;30230;47.520;19.016;2023-07-31T04:01:43;98813.44;;;17.96;100.00
42289;BME280;30230;47.520;19.016;2023-07-31T04:03:44;98822.47;;;17.96;100.00
42289;BME280;30230;47.520;19.016;2023-07-31T04:05:44;98829.56;;;17.98;100.00
42289;BME280;30230;47.520;19.016;2023-07-31T04:07:44;98813.13;;;17.92;100.00
42289;BME280;30230;47.520;19.016;2023-07-31T04:09:45;98827.94;;;17.96;100.00
42289;BME280;30230;47.520;19.016;2023-07-31T04:11:45;98826.63;;;18.04;100.00
42289;BME280;30230;47.520;19.016;2023-07-31T04:13:46;98818.41;;;17.99;100.00
42289;BME280;30230;47.520;19.016;2023-07-31T04:15:49;98815.91;;;17.98;100.00
42289;BME280;30230;47.520;19.016;2023-07-31T04:17:51;98826.06;;;18.02;100.00
42289;BME280;30230;47.520;19.016;2023-07-31T04:19:51;98827.97;;;18.02;100.00
42289;BME280;30230;47.520;19.016;2023-07-31T04:21:52;98823.94;;;18.09;100.00
42289;BME280;30230;47.520;19.016;2023-07-31T04:23:52;98829.63;;;18.08;100.00
42289;BME280;30230;47.520;19.016;2023-07-31T04:25:56;98819.50;;;18.03;100.00
42289;BME280;30230;47.520;19.016;2023-07-31T04:27:56;98824.75;;;18.10;100.00
42289;BME280;30230;47.520;19.016;2023-07-31T04:29:56;98822.03;;;18.10;100.00
42289;BME280;30230;47.520;19.016;2023-07-31T04:31:57;98817.00;;;17.96;100.00
42289;BME280;30230;47.520;19.016;2023-07-31T04:33:57;98820.09;;;18.10;100.00
42289;BME280;30230;47.520;19.016;2023-07-31T04:36:00;98817.09;;;18.12;100.00
42289;BME280;30230;47.520;19.016;2023-07-31T04:38:00;98817.09;;;18.12;100.00
42289;BME280;30230;47.520;19.016;2023-07-31T04:40:01;98812.75;;;18.16;100.00
42289;BME280;30230;47.520;19.016;2023-07-31T04:42:01;98817.44;;;18.20;100.00
42289;BME280;30230;47.520;19.016;2023-07-31T04:44:02;98816.59;;;18.15;100.00
42289;BME280;30230;47.520;19.016;2023-07-31T04:46:03;98819.88;;;18.17;100.00
42289;BME280;30230;47.520;19.016;2023-07-31T04:48:04;98820.97;;;18.16;100.00
42289;BME280;30230;47.520;19.016;2023-07-31T04:50:05;98796.59;;;18.09;99.04
42289;BME280;30230;47.520;19.016;2023-07-31T04:52:06;98831.38;;;18.24;99.17
42289;BME280;30230;47.520;19.016;2023-07-31T04:54:06;98830.28;;;18.20;99.05
42289;BME280;30230;47.520;19.016;2023-07-31T04:56:06;98828.09;;;18.22;99.07
42289;BME280;30230;47.520;19.016;2023-07-31T04:58:07;98829.75;;;18.28;94.52
42289;BME280;30230;47.520;19.016;2023-07-31T05:00:08;98826.22;;;18.28;92.75
42289;BME280;30230;47.520;19.016;2023-07-31T05:02:08;98829.19;;;18.21;94.67
42289;BME280;30230;47.520;19.016;2023-07-31T05:04:09;98829.50;;;18.25;93.18
42289;BME280;30230;47.520;19.016;2023-07-31T05:06:09;98833.63;;;18.32;91.93
42289;BME280;30230;47.520;19.016;2023-07-31T05:08:10;98834.69;;;18.26;89.37
42289;BME280;30230;47.520;19.016;2023-07-31T05:10:10;98831.13;;;18.26;88.79
42289;BME280;30230;47.520;19.016;2023-07-31T05:12:10;98821.56;;;18.28;87.91
42289;BME280;30230;47.520;19.016;2023-07-31T05:14:11;98835.22;;;18.28;87.96
42289;BME280;30230;47.520;19.016;2023-07-31T05:16:11;98826.75;;;18.25;87.51
42289;BME280;30230;47.520;19.016;2023-07-31T05:18:12;98828.63;;;18.24;87.46
42289;BME280;30230;47.520;19.016;2023-07-31T05:20:12;98827.59;;;18.25;86.99
42289;BME280;30230;47.520;19.016;2023-07-31T05:22:13;98828.97;;;18.33;84.85
42289;BME280;30230;47.520;19.016;2023-07-31T05:24:13;98835.81;;;18.30;85.67
42289;BME280;30230;47.520;19.016;2023-07-31T05:26:13;98831.16;;;18.31;85.17
42289;BME280;30230;47.520;19.016;2023-07-31T05:28:14;98828.19;;;18.37;85.23
42289;BME280;30230;47.520;19.016;2023-07-31T05:30:14;98830.09;;;18.37;85.16
42289;BME280;30230;47.520;19.016;2023-07-31T05:32:15;98841.03;;;18.37;83.83
42289;BME280;30230;47.520;19.016;2023-07-31T05:34:15;98833.94;;;18.36;82.53
42289;BME280;30230;47.520;19.016;2023-07-31T05:36:16;98827.63;;;18.35;83.93
42289;BME280;30230;47.520;19.016;2023-07-31T05:38:17;98817.56;;;18.41;83.88
42289;BME280;30230;47.520;19.016;2023-07-31T05:40:17;98824.34;;;18.38;83.82
42289;BME280;30230;47.520;19.016;2023-07-31T05:42:18;98821.09;;;18.41;82.02
42289;BME280;30230;47.520;19.016;2023-07-31T05:44:18;98814.81;;;18.41;81.90
42289;BME280;30230;47.520;19.016;2023-07-31T05:46:18;98814.06;;;18.56;81.13
42289;BME280;30230;47.520;19.016;2023-07-31T05:48:19;98816.75;;;18.45;79.95
42289;BME280;30230;47.520;19.016;2023-07-31T05:50:19;98825.03;;;18.61;80.73
42289;BME280;30230;47.520;19.016;2023-07-31T05:52:19;98819.59;;;18.71;81.20
42289;BME280;30230;47.520;19.016;2023-07-31T05:54:20;98825.09;;;18.71;79.94
42289;BME280;30230;47.520;19.016;2023-07-31T05:56:20;98832.50;;;18.76;79.07
42289;BME280;30230;47.520;19.016;2023-07-31T05:58:21;98825.94;;;18.71;79.04
42289;BME280;30230;47.520;19.016;2023-07-31T06:00:21;98833.31;;;18.76;79.31
42289;BME280;30230;47.520;19.016;2023-07-31T06:02:22;98832.78;;;18.79;79.14
42289;BME280;30230;47.520;19.016;2023-07-31T06:04:23;98841.56;;;18.91;79.45
42289;BME280;30230;47.520;19.016;2023-07-31T06:06:25;98839.41;;;18.93;78.80
42289;BME280;30230;47.520;19.016;2023-07-31T06:08:26;98837.47;;;18.89;78.06
42289;BME280;30230;47.520;19.016;2023-07-31T06:10:26;98834.22;;;18.92;77.87
42289;BME280;30230;47.520;19.016;2023-07-31T06:12:27;98835.06;;;18.97;77.20
42289;BME280;30230;47.520;19.016;2023-07-31T06:14:29;98851.22;;;19.09;76.71
42289;BME280;30230;47.520;19.016;2023-07-31T06:16:30;98846.03;;;19.03;77.94
42289;BME280;30230;47.520;19.016;2023-07-31T06:18:32;98850.44;;;19.14;77.49
42289;BME280;30230;47.520;19.016;2023-07-31T06:20:33;98849.31;;;19.15;75.43
42289;BME280;30230;47.520;19.016;2023-07-31T06:22:33;98843.84;;;19.10;76.62
42289;BME280;30230;47.520;19.016;2023-07-31T06:24:34;98828.25;;;19.15;76.71
42289;BME280;30230;47.520;19.016;2023-07-31T06:26:34;98837.88;;;19.33;75.17
42289;BME280;30230;47.520;19.016;2023-07-31T06:28:35;98835.41;;;19.52;75.91
42289;BME280;30230;47.520;19.016;2023-07-31T06:30:35;98829.41;;;19.50;75.28
42289;BME280;30230;47.520;19.016;2023-07-31T06:32:35;98836.84;;;19.65;74.73
42289;BME280;30230;47.520;19.016;2023-07-31T06:34:36;98847.25;;;19.68;74.79
42289;BME280;30230;47.520;19.016;2023-07-31T06:36:36;98842.88;;;19.67;75.55
42289;BME280;30230;47.520;19.016;2023-07-31T06:38:37;98847.25;;;19.68;73.85
42289;BME280;30230;47.520;19.016;2023-07-31T06:40:37;98848.88;;;19.64;74.01
42289;BME280;30230;47.520;19.016;2023-07-31T06:42:38;98851.09;;;19.72;74.88
42289;BME280;30230;47.520;19.016;2023-07-31T06:44:38;98852.72;;;19.63;74.61
42289;BME280;30230;47.520;19.016;2023-07-31T06:46:39;98857.09;;;19.64;76.07
42289;BME280;30230;47.520;19.016;2023-07-31T06:48:39;98856.56;;;19.62;75.30
42289;BME280;30230;47.520;19.016;2023-07-31T06:50:39;98855.47;;;19.68;74.95
42289;BME280;30230;47.520;19.016;2023-07-31T06:52:40;98855.72;;;19.56;75.68
42289;BME280;30230;47.520;19.016;2023-07-31T06:54:40;98856.25;;;19.58;77.97
42289;BME280;30230;47.520;19.016;2023-07-31T06:56:40;98841.50;;;19.59;76.43
42289;BME280;30230;47.520;19.016;2023-07-31T06:58:41;98849.13;;;19.57;77.89
42289;BME280;30230;47.520;19.016;2023-07-31T07:00:41;98853.00;;;19.71;79.37
42289;BME280;30230;47.520;19.016;2023-07-31T07:02:42;98856.28;;;19.78;77.28
42289;BME280;30230;47.520;19.016;2023-07-31T07:04:42;98859.84;;;19.74;78.16
42289;BME280;30230;47.520;19.016;2023-07-31T07:06:43;98848.34;;;19.62;77.91
42289;BME280;30230;47.520;19.016;2023-07-31T07:08:43;98880.13;;;19.88;76.01
42289;BME280;30230;47.520;19.016;2023-07-31T07:10:43;98867.81;;;19.86;75.95
42289;BME280;30230;47.520;19.016;2023-07-31T07:12:44;98867.81;;;20.06;76.09
42289;BME280;30230;47.520;19.016;2023-07-31T07:14:44;98870.25;;;20.23;75.30
42289;BME280;30230;47.520;19.016;2023-07-31T07:16:51;98870.81;;;20.10;74.27
42289;BME280;30230;47.520;19.016;2023-07-31T07:18:51;98872.44;;;20.31;74.67
42289;BME280;30230;47.520;19.016;2023-07-31T07:20:53;98875.16;;;20.51;74.03
42289;BME280;30230;47.520;19.016;2023-07-31T07:22:53;98886.09;;;20.72;71.14
42289;BME280;30230;47.520;19.016;2023-07-31T07:24:54;98882.53;;;20.66;70.75
42289;BME280;30230;47.520;19.016;2023-07-31T07:26:54;98871.50;;;20.81;70.89
42289;BME280;30230;47.520;19.016;2023-07-31T07:28:55;98878.91;;;20.81;69.34
42289;BME280;30230;47.520;19.016;2023-07-31T07:30:55;98883.06;;;20.78;71.18
42289;BME280;30230;47.520;19.016;2023-07-31T07:32:55;98880.91;;;20.55;68.58
42289;BME280;30230;47.520;19.016;2023-07-31T07:34:56;98871.25;;;20.83;69.04
42289;BME280;30230;47.520;19.016;2023-07-31T07:36:56;98876.28;;;21.20;70.26
42289;BME280;30230;47.520;19.016;2023-07-31T07:38:57;98878.03;;;21.55;66.23
42289;BME280;30230;47.520;19.016;2023-07-31T07:40:57;98875.59;;;21.49;65.47
42289;BME280;30230;47.520;19.016;2023-07-31T07:42:58;98877.53;;;21.48;65.77
42289;BME280;30230;47.520;19.016;2023-07-31T07:45:00;98876.44;;;21.44;64.81
42289;BME280;30230;47.520;19.016;2023-07-31T07:47:00;98872.88;;;21.44;64.38
42289;BME280;30230;47.520;19.016;2023-07-31T07:49:01;98872.44;;;21.21;66.25
42289;BME280;30230;47.520;19.016;2023-07-31T07:51:01;98869.41;;;21.23;65.54
42289;BME280;30230;47.520;19.016;2023-07-31T07:53:01;98876.03;;;21.17;64.69
42289;BME280;30230;47.520;19.016;2023-07-31T07:55:02;98871.19;;;20.93;65.26
42289;BME280;30230;47.520;19.016;2023-07-31T07:57:04;98873.97;;;20.88;65.61
42289;BME280;30230;47.520;19.016;2023-07-31T07:59:04;98868.78;;;20.71;63.31
42289;BME280;30230;47.520;19.016;2023-07-31T08:01:04;98882.69;;;21.00;62.97
42289;BME280;30230;47.520;19.016;2023-07-31T08:03:05;98868.28;;;21.24;60.73
42289;BME280;30230;47.520;19.016;2023-07-31T08:05:06;98864.53;;;21.59;60.90
42289;BME280;30230;47.520;19.016;2023-07-31T08:07:07;98875.41;;;21.74;60.77
42289;BME280;30230;47.520;19.016;2023-07-31T08:09:07;98861.94;;;22.12;58.48
42289;BME280;30230;47.520;19.016;2023-07-31T08:11:09;98879.13;;;22.28;58.11
42289;BME280;30230;47.520;19.016;2023-07-31T08:13:11;98871.16;;;22.26;58.19
42289;BME280;30230;47.520;19.016;2023-07-31T08:15:11;98872.13;;;22.41;57.69
42289;BME280;30230;47.520;19.016;2023-07-31T08:17:12;98877.31;;;22.42;57.72
42289;BME280;30230;47.520;19.016;2023-07-31T08:19:12;98864.16;;;22.39;56.53
42289;BME280;30230;47.520;19.016;2023-07-31T08:21:13;98883.88;;;22.75;57.58
42289;BME280;30230;47.520;19.016;2023-07-31T08:23:13;98862.06;;;22.79;56.79
42289;BME280;30230;47.520;19.016;2023-07-31T08:25:14;98870.22;;;22.89;55.20
42289;BME280;30230;47.520;19.016;2023-07-31T08:27:14;98873.41;;;23.20;56.47
42289;BME280;30230;47.520;19.016;2023-07-31T08:29:15;98876.78;;;23.17;54.80
42289;BME280;30230;47.520;19.016;2023-07-31T08:31:15;98876.91;;;23.26;55.03
42289;BME280;30230;47.520;19.016;2023-07-31T08:33:15;98876.31;;;23.29;54.52
42289;BME280;30230;47.520;19.016;2023-07-31T08:35:16;98874.41;;;23.48;54.94
42289;BME280;30230;47.520;19.016;2023-07-31T08:37:16;98880.16;;;23.71;55.42
42289;BME280;30230;47.520;19.016;2023-07-31T08:39:17;98873.16;;;23.78;56.03
42289;BME280;30230;47.520;19.016;2023-07-31T08:41:17;98867.25;;;23.85;53.90
42289;BME280;30230;47.520;19.016;2023-07-31T08:43:18;98886.72;;;23.94;55.44
42289;BME280;30230;47.520;19.016;2023-07-31T08:45:20;98887.47;;;23.80;52.10
42289;BME280;30230;47.520;19.016;2023-07-31T08:47:21;98876.09;;;24.01;52.18
42289;BME280;30230;47.520;19.016;2023-07-31T08:49:23;98879.56;;;23.74;52.91
42289;BME280;30230;47.520;19.016;2023-07-31T08:51:23;98866.81;;;23.78;53.24
42289;BME280;30230;47.520;19.016;2023-07-31T08:53:24;98861.66;;;23.90;52.50
42289;BME280;30230;47.520;19.016;2023-07-31T08:55:24;98867.34;;;24.12;52.48
42289;BME280;30230;47.520;19.016;2023-07-31T08:57:25;98869.25;;;24.31;52.05
42289;BME280;30230;47.520;19.016;2023-07-31T08:59:30;98858.97;;;24.17;51.55
42289;BME280;30230;47.520;19.016;2023-07-31T09:01:35;98860.00;;;24.22;50.90
42289;BME280;30230;47.520;19.016;2023-07-31T09:03:36;98857.31;;;24.49;51.98
42289;BME280;30230;47.520;19.016;2023-07-31T09:05:44;98859.56;;;24.47;50.82
42289;BME280;30230;47.520;19.016;2023-07-31T09:07:47;98864.69;;;24.40;49.90
42289;BME280;30230;47.520;19.016;2023-07-31T09:09:50;98869.28;;;24.45;49.93
42289;BME280;30230;47.520;19.016;2023-07-31T09:11:51;98861.63;;;24.41;49.69
42289;BME280;30230;47.520;19.016;2023-07-31T09:13:52;98843.44;;;24.22;50.01
42289;BME280;30230;47.520;19.016;2023-07-31T09:15:53;98859.78;;;24.51;50.73
42289;BME280;30230;47.520;19.016;2023-07-31T09:18:01;98848.34;;;24.57;50.62
42289;BME280;30230;47.520;19.016;2023-07-31T09:20:21;98854.28;;;24.92;50.97
42289;BME280;30230;47.520;19.016;2023-07-31T09:22:34;98848.25;;;25.17;50.38
42289;BME280;30230;47.520;19.016;2023-07-31T09:24:35;98846.59;;;24.89;48.40
42289;BME280;30230;47.520;19.016;2023-07-31T09:26:36;98860.63;;;24.92;48.37
42289;BME280;30230;47.520;19.016;2023-07-31T09:28:37;98852.50;;;24.96;48.19
42289;BME280;30230;47.520;19.016;2023-07-31T09:30:51;98859.06;;;25.00;48.86
42289;BME280;30230;47.520;19.016;2023-07-31T09:33:00;98850.28;;;25.12;48.69
42289;BME280;30230;47.520;19.016;2023-07-31T09:35:01;98854.66;;;24.99;47.61
42289;BME280;30230;47.520;19.016;2023-07-31T09:37:01;98855.41;;;25.18;49.62
42289;BME280;30230;47.520;19.016;2023-07-31T09:39:03;98845.38;;;25.23;48.23
42289;BME280;30230;47.520;19.016;2023-07-31T09:41:05;98843.41;;;25.23;47.94
42289;BME280;30230;47.520;19.016;2023-07-31T09:43:10;98840.38;;;25.47;47.43
42289;BME280;30230;47.520;19.016;2023-07-31T09:45:11;98851.63;;;25.73;48.10
42289;BME280;30230;47.520;19.016;2023-07-31T09:47:22;98836.63;;;25.65;46.51
42289;BME280;30230;47.520;19.016;2023-07-31T09:49:25;98843.78;;;25.80;46.13
42289;BME280;30230;47.520;19.016;2023-07-31T09:51:26;98840.19;;;25.80;46.47
42289;BME280;30230;47.520;19.016;2023-07-31T09:53:30;98836.31;;;26.12;47.80
42289;BME280;30230;47.520;19.016;2023-07-31T09:55:31;98852.75;;;26.08;45.84
42289;BME280;30230;47.520;19.016;2023-07-31T09:57:32;98845.06;;;25.83;44.65
42289;BME280;30230;47.520;19.016;2023-07-31T09:59:34;98852.13;;;25.89;45.67
42289;BME280;30230;47.520;19.016;2023-07-31T10:01:34;98841.63;;;25.77;45.61
42289;BME280;30230;47.520;19.016;2023-07-31T10:03:36;98848.97;;;26.04;45.57
42289;BME280;30230;47.520;19.016;2023-07-31T10:05:49;98846.06;;;26.09;45.81
42289;BME280;30230;47.520;19.016;2023-07-31T10:07:51;98849.59;;;26.01;45.38
42289;BME280;30230;47.520;19.016;2023-07-31T10:09:54;98845.38;;;26.04;43.09
42289;BME280;30230;47.520;19.016;2023-07-31T10:12:00;98855.38;;;26.13;44.99
42289;BME280;30230;47.520;19.016;2023-07-31T10:14:03;98850.88;;;25.95;44.19
42289;BME280;30230;47.520;19.016;2023-07-31T10:16:04;98847.28;;;26.17;46.59
42289;BME280;30230;47.520;19.016;2023-07-31T10:18:07;98841.09;;;26.51;46.32
42289;BME280;30230;47.520;19.016;2023-07-31T10:20:09;98849.66;;;26.63;44.14
42289;BME280;30230;47.520;19.016;2023-07-31T10:22:10;98834.88;;;26.45;43.61
42289;BME280;30230;47.520;19.016;2023-07-31T10:24:11;98846.34;;;26.61;44.16
42289;BME280;30230;47.520;19.016;2023-07-31T10:26:13;98833.69;;;26.69;44.04
42289;BME280;30230;47.520;19.016;2023-07-31T10:28:14;98835.19;;;26.75;43.10
42289;BME280;30230;47.520;19.016;2023-07-31T10:30:17;98847.44;;;26.83;42.39
42289;BME280;30230;47.520;19.016;2023-07-31T10:32:19;98853.50;;;26.54;43.06
42289;BME280;30230;47.520;19.016;2023-07-31T10:34:20;98844.72;;;26.60;43.73
42289;BME280;30230;47.520;19.016;2023-07-31T10:36:21;98842.34;;;26.76;43.89